Airfield :
LOGIN :

Register | Disclaimer

   EN    FR    IT 

 










Legend :    VFR   Marginal VFR   IFR   Intensive IFR   Very Intensive IFR
Visi :
Ceiling :
>= 8 km
>= 3000ft
5 to 8 km
1000 to 3000 ft
1500m to 5 km
500 to 1000 ft
800 to 1500m
200 to 500 ft
< 800m
< 200 ft
Symbols :   Thunderstorms  Fog  Heavy snow  Heavy precipitations  Wind > 20 kt
SIGMETs :     Misc.  Thunderstorms  Icing  Turbulence  Mountain Waves  Volcanic Ashes







- Airport Elevation : -11 ft
- IATA code : AMS


EHAM - Amsterdam Schiphol

CURRENT METAR :
  • 160225Z 15007KT 9999 SCT044 13/12 Q1016 NOSIG

EXPIRED METARs :
  • 160155Z 15006KT 9999 FEW043 13/12 Q1016 NOSIG
  • 160125Z 14008KT 9999 FEW047 13/12 Q1016 NOSIG
  • 160055Z 15006KT 9999 FEW040 12/11 Q1016 NOSIG
  • 160025Z 13004KT 9999 SCT045 12/11 Q1016 NOSIG
  • 152355Z 13004KT 9999 SCT045 12/11 Q1016 NOSIG

TAF TAF EHAM
Valid from the 16 at 00:00 until the 17 at 06:00 UTC


152238Z 1600/1706 16004KT CAVOK
PROB30
TEMPO 1600/1604 7000 -RA -SHRA BKN018 SCT025TCU
BECMG 1602/1605 24010KT SCT025
PROB30
TEMPO 1611/1617 6000 SHRA SCT022CB BKN030
BECMG 1618/1621 18005KT CAVOK
No reported NOTAMs for that airfield.



MET'MAP, your aeronautical weather chart ! - Copyright ORBIFLY December 2007 - Disclaimer

ORBIFLY MET'MAP TEAM :

Programming & Development : Alexandra Zaïnal
Concept & Development : Baudouin d'Aumeries
Co-Development & Prog : Marc-Olivier Méhu
Technical & hardware support : Manuel Goepfert

Contact : metmap@orbifly.com




SOURCES & CREDITS :

   NOAA